createdAt,value
2023-02-02T00:01:24.156Z,2.90
2023-02-02T00:04:23.761Z,2.90
2023-02-02T00:07:11.583Z,2.90
2023-02-02T00:09:59.538Z,2.70
2023-02-02T00:12:47.532Z,2.40
2023-02-02T00:15:35.443Z,3.30
2023-02-02T00:18:23.204Z,4.00
2023-02-02T00:21:11.244Z,3.30
2023-02-02T00:24:01.822Z,3.20
2023-02-02T00:26:56.352Z,3.10
2023-02-02T00:29:44.859Z,3.00
2023-02-02T00:32:33.381Z,3.30
2023-02-02T00:35:21.109Z,3.50
2023-02-02T00:38:09.321Z,3.40
2023-02-02T00:40:57.341Z,3.50
2023-02-02T00:44:05.876Z,3.40
2023-02-02T00:46:53.682Z,3.30
2023-02-02T00:49:41.738Z,3.30
2023-02-02T00:52:30.423Z,3.00
2023-02-02T00:55:18.653Z,3.20
2023-02-02T00:58:08.528Z,3.10
2023-02-02T01:00:57.204Z,3.20
2023-02-02T01:03:51.795Z,3.10
2023-02-02T01:06:39.731Z,2.90
2023-02-02T01:09:29.478Z,3.10
2023-02-02T01:12:17.111Z,2.90
2023-02-02T01:15:06.125Z,2.10
2023-02-02T01:17:54.299Z,3.20
2023-02-02T01:20:42.080Z,3.30
2023-02-02T01:23:31.039Z,3.40
2023-02-02T01:26:19.253Z,2.80
2023-02-02T01:29:07.123Z,3.00
2023-02-02T01:31:55.051Z,4.70
2023-02-02T01:34:43.794Z,3.30
2023-02-02T01:37:32.186Z,3.20
2023-02-02T01:40:20.498Z,3.30
2023-02-02T01:43:23.085Z,3.00
2023-02-02T01:46:17.454Z,3.20
2023-02-02T01:49:19.445Z,2.60
2023-02-02T01:52:10.243Z,3.00
2023-02-02T01:55:08.378Z,2.70
2023-02-02T01:58:03.277Z,3.10
2023-02-02T02:00:52.001Z,3.20
2023-02-02T02:03:39.943Z,2.20
2023-02-02T02:06:29.074Z,2.90
2023-02-02T02:09:17.569Z,2.80
2023-02-02T02:12:15.673Z,2.80
2023-02-02T02:15:22.572Z,2.50
2023-02-02T02:18:33.371Z,2.70
2023-02-02T02:22:06.391Z,2.50
2023-02-02T02:26:19.776Z,2.20
2023-02-02T02:29:59.788Z,2.70
2023-02-02T02:33:10.787Z,3.20
2023-02-02T02:36:09.676Z,2.60
2023-02-02T02:39:12.123Z,2.60
2023-02-02T02:42:10.497Z,3.60
2023-02-02T02:45:02.676Z,2.70
2023-02-02T02:47:51.419Z,2.80
2023-02-02T02:50:39.856Z,2.00
2023-02-02T02:53:28.373Z,3.30
2023-02-02T02:56:32.240Z,2.40
2023-02-02T02:59:47.635Z,2.90
2023-02-02T03:02:58.625Z,2.60
2023-02-02T03:06:15.063Z,2.20
2023-02-02T03:09:11.019Z,2.40
2023-02-02T03:11:59.970Z,2.50
2023-02-02T03:14:47.707Z,2.70
2023-02-02T03:17:35.608Z,1.80
2023-02-02T03:20:23.229Z,2.40
2023-02-02T03:23:11.401Z,2.40
2023-02-02T03:25:59.784Z,2.60
2023-02-02T03:28:49.322Z,2.10
2023-02-02T03:31:37.373Z,2.20
2023-02-02T03:34:25.258Z,2.60
2023-02-02T03:37:13.534Z,2.40
2023-02-02T03:40:01.682Z,2.30
2023-02-02T03:42:49.581Z,2.90
2023-02-02T03:45:40.711Z,2.10
2023-02-02T03:48:28.833Z,2.40
2023-02-02T03:51:17.120Z,2.30
2023-02-02T03:54:05.057Z,2.20
2023-02-02T03:56:52.710Z,2.40
2023-02-02T03:59:40.709Z,2.90
2023-02-02T04:02:31.491Z,3.10
2023-02-02T04:05:19.402Z,2.10
2023-02-02T04:08:07.369Z,2.60
2023-02-02T04:10:55.589Z,2.20
2023-02-02T04:13:46.330Z,2.30
2023-02-02T04:16:37.186Z,2.40
2023-02-02T04:19:25.563Z,2.70
2023-02-02T04:22:14.079Z,2.90
2023-02-02T04:25:02.023Z,2.20
2023-02-02T04:27:50.181Z,2.90
2023-02-02T04:30:38.140Z,2.40
2023-02-02T04:33:28.482Z,2.10
2023-02-02T04:36:16.422Z,2.20
2023-02-02T04:39:04.241Z,2.70
2023-02-02T04:41:52.311Z,2.20
2023-02-02T04:44:40.965Z,2.20
2023-02-02T04:47:28.691Z,2.90
2023-02-02T04:50:17.241Z,2.40
2023-02-02T04:53:05.614Z,2.10
2023-02-02T04:55:53.664Z,2.20
2023-02-02T04:58:41.762Z,2.60
2023-02-02T05:01:30.950Z,1.90
2023-02-02T05:04:19.311Z,2.00
2023-02-02T05:07:07.777Z,2.20
2023-02-02T05:09:55.929Z,1.80
2023-02-02T05:12:43.787Z,1.80
2023-02-02T05:15:31.670Z,2.00
2023-02-02T05:18:19.802Z,1.90
2023-02-02T05:21:07.636Z,2.10
2023-02-02T05:23:55.579Z,2.50
2023-02-02T05:26:43.473Z,1.80
2023-02-02T05:29:31.530Z,2.00
2023-02-02T05:32:19.532Z,2.30
2023-02-02T05:35:08.579Z,2.40
2023-02-02T05:37:59.036Z,2.20
2023-02-02T05:40:49.812Z,1.80
2023-02-02T05:43:38.038Z,1.70
2023-02-02T05:46:25.828Z,1.80
2023-02-02T05:49:15.029Z,1.60
2023-02-02T05:52:03.336Z,1.60
2023-02-02T05:54:51.599Z,1.70
2023-02-02T05:57:39.544Z,1.60
2023-02-02T06:00:27.508Z,1.70
2023-02-02T06:03:15.415Z,1.50
2023-02-02T06:06:05.992Z,1.60
2023-02-02T06:08:54.854Z,1.40
2023-02-02T06:11:45.134Z,1.20
2023-02-02T06:14:33.352Z,1.10
2023-02-02T06:17:21.084Z,1.00
2023-02-02T06:20:10.277Z,1.40
2023-02-02T06:22:58.154Z,1.30
2023-02-02T06:25:46.003Z,1.10
2023-02-02T06:28:33.977Z,0.90
2023-02-02T06:31:24.736Z,1.10
2023-02-02T06:34:16.113Z,1.30
2023-02-02T06:37:04.121Z,1.30
2023-02-02T06:39:51.943Z,1.20
2023-02-02T06:42:41.076Z,1.10
2023-02-02T06:45:31.085Z,1.40
2023-02-02T06:48:18.575Z,1.30
2023-02-02T06:51:06.689Z,1.20
2023-02-02T06:53:54.589Z,1.20
2023-02-02T06:56:42.477Z,1.60
2023-02-02T06:59:30.313Z,1.10
2023-02-02T07:02:18.132Z,1.60
2023-02-02T07:05:06.606Z,1.60
2023-02-02T07:07:54.980Z,1.50
2023-02-02T07:11:13.183Z,1.60
2023-02-02T07:13:52.725Z,1.60
2023-02-02T07:16:40.924Z,1.60
2023-02-02T07:19:29.036Z,1.30
2023-02-02T07:22:17.085Z,1.20
2023-02-02T07:25:05.413Z,1.40
2023-02-02T07:27:55.247Z,1.90
2023-02-02T07:30:43.521Z,1.80
2023-02-02T07:33:31.451Z,1.60
2023-02-02T07:36:23.501Z,1.60
2023-02-02T07:39:12.169Z,1.40
2023-02-02T07:41:59.993Z,1.90
2023-02-02T07:44:52.044Z,1.90
2023-02-02T07:47:40.009Z,1.70
2023-02-02T07:50:31.089Z,2.20
2023-02-02T07:53:18.860Z,1.70
2023-02-02T07:56:13.717Z,2.50
2023-02-02T07:59:01.605Z,1.90
2023-02-02T08:01:49.456Z,2.60
2023-02-02T08:04:37.464Z,1.80
2023-02-02T08:07:25.654Z,1.70
2023-02-02T08:10:14.192Z,2.40
2023-02-02T08:13:02.368Z,2.20
2023-02-02T08:15:50.332Z,2.40
2023-02-02T08:18:38.776Z,2.50
2023-02-02T08:21:27.251Z,2.20
2023-02-02T08:24:14.867Z,1.70
2023-02-02T08:27:03.242Z,1.90
2023-02-02T08:29:51.076Z,2.00
2023-02-02T08:32:38.823Z,2.20
2023-02-02T08:35:27.150Z,1.90
2023-02-02T08:38:14.984Z,1.90
2023-02-02T08:41:09.274Z,2.00
2023-02-02T08:43:57.148Z,1.70
2023-02-02T08:46:45.281Z,1.80
2023-02-02T08:49:33.485Z,1.60
2023-02-02T08:52:21.124Z,1.50
2023-02-02T08:55:09.490Z,1.60
2023-02-02T08:57:57.356Z,1.80
2023-02-02T09:00:45.458Z,1.80
2023-02-02T09:03:34.177Z,1.80
2023-02-02T09:06:22.812Z,2.00
2023-02-02T09:09:15.080Z,1.80
2023-02-02T09:12:02.950Z,1.80
2023-02-02T09:14:53.157Z,1.70
2023-02-02T09:17:41.243Z,1.70
2023-02-02T09:20:29.317Z,1.80
2023-02-02T09:23:17.261Z,1.70
2023-02-02T09:26:18.479Z,1.60
2023-02-02T09:29:11.336Z,1.70
2023-02-02T09:32:00.696Z,1.40
2023-02-02T09:34:49.146Z,1.90
2023-02-02T09:37:37.358Z,1.80
2023-02-02T09:40:27.975Z,1.70
2023-02-02T09:43:34.687Z,1.80
2023-02-02T09:46:52.171Z,1.90
2023-02-02T09:50:17.081Z,2.00
2023-02-02T09:53:54.770Z,1.70
2023-02-02T09:56:50.806Z,2.50
2023-02-02T09:59:41.996Z,2.30
2023-02-02T10:02:46.144Z,2.20
2023-02-02T10:05:58.046Z,2.10
2023-02-02T10:08:55.913Z,1.50
2023-02-02T10:12:24.247Z,1.40
2023-02-02T10:15:43.244Z,1.10
2023-02-02T10:18:55.802Z,1.10
2023-02-02T10:22:00.569Z,0.90
2023-02-02T10:24:48.673Z,0.80
2023-02-02T10:27:41.102Z,0.90
2023-02-02T10:30:55.739Z,1.00
2023-02-02T10:33:59.234Z,1.10
2023-02-02T10:37:20.131Z,1.30
2023-02-02T10:40:35.041Z,1.20
2023-02-02T10:43:57.570Z,1.20
2023-02-02T10:46:57.215Z,1.10
2023-02-02T10:49:45.952Z,1.40
2023-02-02T10:52:35.249Z,1.60
2023-02-02T10:55:41.494Z,1.80
2023-02-02T10:58:36.463Z,5.60
2023-02-02T11:01:24.470Z,1.80
2023-02-02T11:04:30.361Z,1.70
2023-02-02T11:07:20.667Z,1.30
2023-02-02T11:10:09.008Z,1.40
2023-02-02T11:13:01.938Z,1.50
2023-02-02T11:15:50.016Z,1.30
2023-02-02T11:18:37.791Z,1.50
2023-02-02T11:21:34.586Z,1.40
2023-02-02T11:24:27.244Z,1.30
2023-02-02T11:27:29.241Z,1.10
2023-02-02T11:30:50.592Z,1.50
2023-02-02T11:33:38.471Z,1.30
2023-02-02T11:36:26.260Z,1.50
2023-02-02T11:39:22.575Z,1.60
2023-02-02T11:42:18.959Z,1.70
2023-02-02T11:45:18.207Z,1.60
2023-02-02T11:48:20.063Z,1.60
2023-02-02T11:51:10.247Z,1.30
2023-02-02T11:54:08.120Z,1.20
2023-02-02T11:57:01.428Z,1.30
2023-02-02T12:00:10.255Z,1.60
2023-02-02T12:02:59.423Z,1.80
2023-02-02T12:05:50.069Z,1.60
2023-02-02T12:08:38.193Z,1.60
2023-02-02T12:12:02.402Z,1.90
2023-02-02T12:15:27.216Z,1.30
2023-02-02T12:18:51.961Z,1.60
2023-02-02T12:22:07.272Z,3.20
2023-02-02T12:25:33.003Z,1.40
2023-02-02T12:28:27.476Z,1.50
2023-02-02T12:31:21.140Z,1.60
2023-02-02T12:34:24.565Z,1.30
2023-02-02T12:37:46.121Z,1.40
2023-02-02T12:41:23.787Z,1.90
2023-02-02T12:44:36.950Z,1.60
2023-02-02T12:47:36.163Z,1.30
2023-02-02T12:50:54.615Z,1.90
2023-02-02T12:54:32.856Z,1.60
2023-02-02T12:57:27.870Z,2.00
2023-02-02T13:00:39.572Z,1.60
2023-02-02T13:04:07.147Z,1.60
2023-02-02T13:07:40.798Z,2.20
2023-02-02T13:10:42.344Z,2.10
2023-02-02T13:13:38.570Z,2.00
2023-02-02T13:16:30.352Z,2.10
2023-02-02T13:19:46.426Z,1.90
2023-02-02T13:22:45.730Z,1.90
2023-02-02T13:25:41.681Z,1.60
2023-02-02T13:28:41.706Z,2.00
2023-02-02T13:31:45.804Z,1.70
2023-02-02T13:35:08.773Z,1.60
2023-02-02T13:38:07.353Z,1.50
2023-02-02T13:40:59.397Z,2.30
2023-02-02T13:44:25.807Z,2.40
2023-02-02T13:47:46.202Z,2.00
2023-02-02T13:50:46.650Z,1.50
2023-02-02T13:53:58.615Z,1.80
2023-02-02T13:57:22.061Z,1.70
2023-02-02T14:00:18.950Z,1.90
2023-02-02T14:03:29.014Z,1.70
2023-02-02T14:06:23.923Z,1.50
2023-02-02T14:09:19.347Z,1.70
2023-02-02T14:12:11.413Z,1.70
2023-02-02T14:15:00.236Z,1.90
2023-02-02T14:17:51.846Z,2.20
2023-02-02T14:20:47.157Z,1.90
2023-02-02T14:23:55.554Z,1.80
2023-02-02T14:26:48.831Z,1.30
2023-02-02T14:29:46.924Z,1.60
2023-02-02T14:32:42.766Z,1.40
2023-02-02T14:35:31.342Z,1.50
2023-02-02T14:38:57.934Z,1.40
2023-02-02T14:43:00.756Z,1.70
2023-02-02T14:46:12.889Z,1.70
2023-02-02T14:49:01.123Z,1.50
2023-02-02T14:51:58.563Z,2.10
2023-02-02T14:54:49.306Z,2.30
2023-02-02T14:57:37.351Z,2.20
2023-02-02T15:00:32.536Z,1.80
2023-02-02T15:03:45.989Z,2.00
2023-02-02T15:06:37.276Z,2.00
2023-02-02T15:09:33.567Z,1.70
2023-02-02T15:13:04.790Z,1.90
2023-02-02T15:16:23.561Z,2.30
2023-02-02T15:19:24.983Z,2.40
2023-02-02T15:22:35.148Z,1.90
2023-02-02T15:25:44.832Z,2.20
2023-02-02T15:28:56.331Z,1.80
2023-02-02T15:31:46.894Z,1.80
2023-02-02T15:34:53.712Z,1.70
2023-02-02T15:37:56.442Z,2.90
2023-02-02T15:40:45.818Z,2.50
2023-02-02T15:43:35.757Z,1.60
2023-02-02T15:46:32.901Z,1.70
2023-02-02T15:49:33.305Z,1.90
2023-02-02T15:52:35.563Z,1.40
2023-02-02T15:55:31.880Z,2.20
2023-02-02T15:58:33.157Z,2.00
2023-02-02T16:01:24.765Z,3.50
2023-02-02T16:04:25.017Z,2.90
2023-02-02T16:07:20.083Z,2.00
2023-02-02T16:10:08.976Z,2.00
2023-02-02T16:12:56.936Z,2.10
2023-02-02T16:16:06.503Z,2.20
2023-02-02T16:19:26.824Z,2.20
2023-02-02T16:22:23.999Z,2.50
2023-02-02T16:25:23.212Z,2.20
2023-02-02T16:28:17.293Z,1.80
2023-02-02T16:31:05.770Z,1.90
2023-02-02T16:33:54.057Z,2.40
2023-02-02T16:36:42.367Z,2.20
2023-02-02T16:39:30.868Z,2.40
2023-02-02T16:42:31.706Z,2.50
2023-02-02T16:45:54.854Z,1.90
2023-02-02T16:48:59.753Z,2.50
2023-02-02T16:51:49.329Z,2.80
2023-02-02T16:54:40.131Z,2.70
2023-02-02T16:57:34.338Z,2.10
2023-02-02T17:00:27.299Z,2.40
2023-02-02T17:03:17.700Z,2.40
2023-02-02T17:06:06.987Z,4.20
2023-02-02T17:08:55.033Z,2.60
2023-02-02T17:11:58.271Z,2.30
2023-02-02T17:15:04.805Z,2.20
2023-02-02T17:17:53.642Z,2.00
2023-02-02T17:20:42.234Z,3.00
2023-02-02T17:23:32.696Z,2.90
2023-02-02T17:26:20.996Z,2.50
2023-02-02T17:29:13.204Z,2.70
2023-02-02T17:32:01.121Z,4.00
2023-02-02T17:34:49.324Z,3.30
2023-02-02T17:37:37.588Z,2.70
2023-02-02T17:40:25.948Z,3.20
2023-02-02T17:43:14.369Z,3.80
2023-02-02T17:46:03.991Z,3.80
2023-02-02T17:48:52.191Z,2.80
2023-02-02T17:51:43.497Z,2.90
2023-02-02T17:54:31.251Z,3.00
2023-02-02T17:57:19.047Z,3.20
2023-02-02T18:00:09.312Z,2.40
2023-02-02T18:03:14.955Z,2.60
2023-02-02T18:06:03.926Z,2.30
2023-02-02T18:08:52.108Z,2.20
2023-02-02T18:11:42.586Z,2.30
2023-02-02T18:14:30.914Z,2.50
2023-02-02T18:17:22.043Z,2.70
2023-02-02T18:20:15.683Z,2.20
2023-02-02T18:23:04.018Z,2.20
2023-02-02T18:25:53.043Z,2.10
2023-02-02T18:28:41.795Z,2.30
2023-02-02T18:31:29.746Z,1.90
2023-02-02T18:34:18.191Z,1.70
2023-02-02T18:37:06.132Z,1.80
2023-02-02T18:39:54.729Z,2.20
2023-02-02T18:42:42.897Z,2.00
2023-02-02T18:45:31.230Z,2.30
2023-02-02T18:48:19.918Z,3.20
2023-02-02T18:51:18.147Z,2.40
2023-02-02T18:54:06.185Z,2.20
2023-02-02T18:56:54.170Z,1.60
2023-02-02T18:59:43.548Z,1.70
2023-02-02T19:02:31.873Z,1.80
2023-02-02T19:05:38.491Z,1.90
2023-02-02T19:08:26.661Z,1.60
2023-02-02T19:11:25.042Z,1.90
2023-02-02T19:14:20.001Z,2.20
2023-02-02T19:17:16.746Z,1.60
2023-02-02T19:20:30.713Z,1.60
2023-02-02T19:23:24.700Z,2.20
2023-02-02T19:26:28.238Z,1.80
2023-02-02T19:29:25.984Z,1.70
2023-02-02T19:32:31.272Z,1.80
2023-02-02T19:35:26.558Z,1.60
2023-02-02T19:38:16.414Z,1.90
2023-02-02T19:41:34.179Z,2.00
2023-02-02T19:44:34.094Z,2.40
2023-02-02T19:47:30.609Z,2.60
2023-02-02T19:50:27.264Z,1.90
2023-02-02T19:53:38.922Z,2.30
2023-02-02T19:56:34.095Z,1.80
2023-02-02T19:59:24.865Z,1.90
2023-02-02T20:03:05.061Z,1.80
2023-02-02T20:05:56.749Z,2.20
2023-02-02T20:08:45.086Z,2.30
2023-02-02T20:11:40.760Z,2.00
2023-02-02T20:14:30.922Z,3.20
2023-02-02T20:17:34.553Z,3.00
2023-02-02T20:20:33.034Z,1.80
2023-02-02T20:23:44.235Z,1.50
2023-02-02T20:26:38.484Z,2.40
2023-02-02T20:29:38.294Z,1.90
2023-02-02T20:32:41.342Z,1.90
2023-02-02T20:35:44.533Z,1.80
2023-02-02T20:38:41.705Z,2.30
2023-02-02T20:41:29.970Z,1.90
2023-02-02T20:44:17.759Z,1.80
2023-02-02T20:47:08.183Z,1.80
2023-02-02T20:49:57.441Z,2.20
2023-02-02T20:52:45.497Z,1.70
2023-02-02T20:55:36.229Z,1.60
2023-02-02T20:58:25.422Z,2.10
2023-02-02T21:01:13.468Z,1.70
2023-02-02T21:04:01.561Z,1.90
2023-02-02T21:06:50.606Z,1.70
2023-02-02T21:09:38.894Z,1.70
2023-02-02T21:12:27.071Z,2.10
2023-02-02T21:15:15.429Z,1.80
2023-02-02T21:18:03.514Z,1.50
2023-02-02T21:20:51.641Z,1.50
2023-02-02T21:23:46.288Z,1.40
2023-02-02T21:26:34.312Z,1.50
2023-02-02T21:29:22.685Z,1.60
2023-02-02T21:32:10.929Z,1.50
2023-02-02T21:34:59.086Z,1.70
2023-02-02T21:37:50.552Z,1.60
2023-02-02T21:40:39.890Z,1.80
2023-02-02T21:43:27.912Z,1.40
2023-02-02T21:46:24.850Z,1.50
2023-02-02T21:49:26.856Z,1.70
2023-02-02T21:52:18.612Z,2.40
2023-02-02T21:55:38.879Z,1.70
2023-02-02T21:58:38.579Z,1.70
2023-02-02T22:01:36.474Z,2.00
2023-02-02T22:04:29.555Z,2.30
2023-02-02T22:07:17.760Z,2.30
2023-02-02T22:10:42.578Z,1.90
2023-02-02T22:13:35.623Z,2.40
2023-02-02T22:16:23.639Z,2.00
2023-02-02T22:19:28.175Z,2.40
2023-02-02T22:22:45.511Z,2.60
2023-02-02T22:25:37.059Z,2.90
2023-02-02T22:28:36.890Z,2.90
2023-02-02T22:31:25.422Z,2.60
2023-02-02T22:34:13.744Z,3.10
2023-02-02T22:37:01.743Z,2.40
2023-02-02T22:39:49.573Z,3.00
2023-02-02T22:42:37.968Z,2.80
2023-02-02T22:45:26.692Z,3.10
2023-02-02T22:48:16.046Z,3.90
2023-02-02T22:51:04.108Z,4.10
2023-02-02T22:53:51.889Z,3.40
2023-02-02T22:56:39.803Z,3.10
2023-02-02T22:59:27.842Z,2.90
2023-02-02T23:02:15.756Z,3.20
2023-02-02T23:05:04.692Z,2.60
2023-02-02T23:07:53.755Z,2.40
2023-02-02T23:10:41.556Z,2.80
2023-02-02T23:13:29.520Z,3.30
2023-02-02T23:16:17.388Z,2.80
2023-02-02T23:19:05.717Z,3.50
2023-02-02T23:21:53.945Z,4.20
2023-02-02T23:24:42.346Z,3.60
2023-02-02T23:27:30.040Z,3.60
2023-02-02T23:30:21.109Z,3.50
2023-02-02T23:33:09.277Z,4.20
2023-02-02T23:35:57.406Z,4.10
2023-02-02T23:38:45.556Z,4.30
2023-02-02T23:41:33.819Z,4.90
2023-02-02T23:44:21.778Z,4.80
2023-02-02T23:47:10.722Z,5.10
2023-02-02T23:49:58.441Z,6.00
2023-02-02T23:52:47.311Z,4.30
2023-02-02T23:55:35.694Z,4.20
2023-02-02T23:58:23.864Z,4.80
